MSC Bari — A8YD3 — position and weather

sailwx.info

Track history (hours):
 
Tides and Currents Weather Stations Pressure Air Temp Water Temp Dewpoint Dewpoint Depression Visibility Wind Speed Wind Dir Waves Ship Positions

MSC Bari

Last reported at 2015-Apr-19 01:33 UTC. Time now 2015-Apr-21 01:25 UTC.
Position N 38°13' E 015°36'.

Length 366 m; draft 13 m.

Type: Ship (hazmat cat A). MMSI: 636092188.

Date/timePositionNaut miles runAvg speedWind from/ knotsBaromVisibWave heightAir tempDewpointWater temp
2015-Apr-19 01:33N 38°13' E 015°36'20 9.1
2015-Apr-18 23:20N 38°27' E 015°54'0 0.0
2015-Apr-18 12:20N 38°27' E 015°54'0 0.0
2015-Apr-18 11:32N 38°27' E 015°54'0 0.0
2015-Apr-17 16:32N 38°27' E 015°54'0 0.0
2015-Apr-17 15:20N 38°27' E 015°54'0 0.0
2015-Apr-17 14:25N 38°27' E 015°54'11 1.9
2015-Apr-17 08:19N 38°34' E 015°42'1819.1
2015-Apr-17 07:23N 38°46' E 015°26'1720.5
2015-Apr-17 06:33N 38°58' E 015°10'2020.0
2015-Apr-17 05:33N 39°11' E 014°51'2020.1
2015-Apr-17 04:33N 39°24' E 014°31'2020.1
2015-Apr-17 03:33N 39°37' E 014°11'2020.0
2015-Apr-17 02:33N 39°50' E 013°51'2020.2
2015-Apr-17 01:33N 40°03' E 013°31'2120.4
2015-Apr-17 00:33N 40°17' E 013°11'2020.4
2015-Apr-16 23:33N 40°30' E 012°51'2020.4
2015-Apr-16 22:33N 40°43' E 012°30'2020.3
2015-Apr-16 21:33N 40°56' E 012°10'2020.2
2015-Apr-16 20:33N 41°09' E 011°49'2020.0
2015-Apr-16 19:33N 41°22' E 011°29'2020.4
2015-Apr-16 18:33N 41°35' E 011°09'2120.6
2015-Apr-16 17:33N 41°49' E 010°47'2020.3
2015-Apr-16 16:33N 42°02' E 010°27'2120.4
2015-Apr-16 15:32N 42°15' E 010°05'2820.2
2015-Apr-16 14:09N 42°41' E 009°50'1220.4
2015-Apr-16 13:33N 42°52' E 009°44'1919.1
2015-Apr-16 12:33N 43°12' E 009°42'2019.9
2015-Apr-16 11:33N 43°31' E 009°46'2020.2
2015-Apr-16 10:33N 43°51' E 009°50'1414.6
2015-Apr-16 09:33N 44°06' E 009°51'1 0.7
2015-Apr-16 08:33N 44°06' E 009°51'0 0.0
2015-Apr-16 07:33N 44°06' E 009°51'0 0.0
2015-Apr-16 06:33N 44°06' E 009°51'0 0.0
2015-Apr-16 05:33N 44°06' E 009°51'0 0.0
2015-Apr-16 04:33N 44°06' E 009°51'0 0.0
2015-Apr-16 03:33N 44°06' E 009°51'0 0.0
2015-Apr-16 02:33N 44°06' E 009°51'0 0.0
2015-Apr-16 01:27N 44°06' E 009°51'0 0.0
2015-Apr-16 00:33N 44°06' E 009°51'0 0.0
2015-Apr-15 23:33N 44°06' E 009°51'0 0.0
2015-Apr-15 22:33N 44°06' E 009°51'0 0.0
2015-Apr-15 21:33N 44°06' E 009°51'0 0.0
2015-Apr-15 20:33N 44°06' E 009°51'0 0.0
2015-Apr-15 19:33N 44°06' E 009°51'0 0.0
2015-Apr-15 18:33N 44°06' E 009°51'0 0.0
2015-Apr-15 17:33N 44°06' E 009°51'0 0.0
2015-Apr-15 16:33N 44°06' E 009°51'0 0.0
2015-Apr-15 15:33N 44°06' E 009°51'0 0.0
2015-Apr-15 14:33N 44°06' E 009°51'0 0.0
2015-Apr-15 13:33N 44°06' E 009°51'0 0.0
2015-Apr-15 12:33N 44°06' E 009°51'0 0.0
2015-Apr-15 11:33N 44°06' E 009°51'0 0.0
2015-Apr-15 10:33N 44°06' E 009°51'0 0.0
2015-Apr-15 09:33N 44°06' E 009°51'0 0.0
2015-Apr-15 08:33N 44°06' E 009°51'0 0.0
2015-Apr-15 07:33N 44°06' E 009°51'0 0.0
2015-Apr-15 06:33N 44°06' E 009°51'0 0.0
2015-Apr-15 05:30N 44°06' E 009°51'0 0.3
2015-Apr-15 04:34N 44°06' E 009°51'7 6.7
2015-Apr-15 03:34N 44°00' E 009°55'1616.1
2015-Apr-15 02:33N 43°53' E 009°35'1616.0
2015-Apr-15 01:34N 43°45' E 009°15'1616.3
2015-Apr-15 00:33N 43°38' E 008°55'1616.3
2015-Apr-14 23:33N 43°32' E 008°35'1616.1
2015-Apr-14 22:33N 43°24' E 008°15'1616.2
2015-Apr-14 21:33N 43°17' E 007°55'1616.1
2015-Apr-14 20:33N 43°10' E 007°35'1616.1
2015-Apr-14 19:33N 43°04' E 007°15'1616.5
2015-Apr-14 18:33N 42°56' E 006°54'1615.7
2015-Apr-14 17:33N 42°50' E 006°35'1615.8
2015-Apr-14 16:33N 42°43' E 006°16'1616.1
2015-Apr-14 15:33N 42°36' E 005°56'1616.4
2015-Apr-14 14:34N 42°29' E 005°36'1817.5
2015-Apr-14 13:33N 42°21' E 005°14'1817.8
2015-Apr-14 12:33N 42°13' E 004°53'1817.8
2015-Apr-14 11:32N 42°06' E 004°31'2117.8
2015-Apr-14 10:21N 41°56' E 004°05'1416.7
2015-Apr-14 09:32N 41°50' E 003°49'2017.0
2015-Apr-14 08:20N 41°41' E 003°24'1317.1
2015-Apr-14 07:33N 41°35' E 003°08'1717.2
2015-Apr-14 06:33N 41°27' E 002°48'1716.8
2015-Apr-14 05:33N 41°20' E 002°28'1313.2
2015-Apr-14 04:33N 41°19' E 002°10'1 0.5
2015-Apr-14 02:07N 41°18' E 002°09'0 0.0
2015-Apr-14 01:25N 41°18' E 002°09'0 0.0
2015-Apr-13 23:32N 41°18' E 002°09'0 0.0
2015-Apr-13 22:07N 41°18' E 002°09'0 0.0
2015-Apr-13 21:31N 41°18' E 002°09'0 0.0
2015-Apr-13 20:31N 41°18' E 002°09'0 0.0
2015-Apr-13 19:19N 41°18' E 002°09'0 0.0
2015-Apr-13 18:31N 41°18' E 002°09'0 0.0
2015-Apr-13 17:28N 41°18' E 002°09'1 1.4
2015-Apr-13 16:33N 41°19' E 002°10'6 5.6
2015-Apr-13 15:33N 41°14' E 002°08'1110.9
2015-Apr-13 14:33N 41°06' E 001°59'1313.3
2015-Apr-13 13:33N 40°56' E 001°47'1313.0
2015-Apr-13 12:33N 40°46' E 001°36'1313.1
2015-Apr-13 11:33N 40°36' E 001°24'1313.4
2015-Apr-13 10:33N 40°26' E 001°12'1414.1
2015-Apr-13 09:34N 40°17' E 000°59'1413.9
2015-Apr-13 08:33N 40°07' E 000°46'1413.6
2015-Apr-13 07:33N 39°58' E 000°32'1413.7
2015-Apr-13 06:33N 39°48' E 000°20'3115.2
2015-Apr-13 04:33N 39°28' W 000°09'8 7.9
2015-Apr-13 03:33N 39°26' W 000°19'0 0.2
2015-Apr-13 02:32N 39°26' W 000°20'0 0.0
2015-Apr-13 01:32N 39°26' W 000°20'0 0.0
2015-Apr-13 00:32N 39°26' W 000°20'0 0.0
2015-Apr-12 23:32N 39°26' W 000°20'0 0.0
2015-Apr-12 22:23N 39°26' W 000°20'0 0.0
2015-Apr-12 21:31N 39°26' W 000°20'0 0.0
2015-Apr-12 20:32N 39°26' W 000°20'0 0.0
2015-Apr-12 19:32N 39°26' W 000°20'0 0.0
2015-Apr-12 18:31N 39°26' W 000°20'0 0.0
2015-Apr-12 16:31N 39°26' W 000°20'0 0.0
2015-Apr-12 15:31N 39°26' W 000°20'0 0.0
2015-Apr-12 14:29N 39°26' W 000°20'0 0.0
2015-Apr-12 13:31N 39°26' W 000°20'0 0.0
2015-Apr-12 12:31N 39°26' W 000°20'0 0.0
2015-Apr-12 11:28N 39°26' W 000°20'0 0.0
2015-Apr-12 10:31N 39°26' W 000°20'0 0.0
2015-Apr-12 09:28N 39°26' W 000°20'0 0.0
2015-Apr-12 08:22N 39°26' W 000°20'0 0.0
2015-Apr-12 07:25N 39°26' W 000°20'0 0.0
2015-Apr-12 06:07N 39°26' W 000°20'0 0.0
2015-Apr-12 05:31N 39°26' W 000°20'0 0.0
2015-Apr-12 04:32N 39°26' W 000°20'0 0.0
2015-Apr-12 03:28N 39°26' W 000°20'0 0.0
2015-Apr-12 02:31N 39°26' W 000°20'0 0.0
2015-Apr-12 01:25N 39°26' W 000°20'0 0.0
2015-Apr-12 00:31N 39°26' W 000°20'0 0.0
2015-Apr-11 23:31N 39°26' W 000°20'0 0.0
2015-Apr-11 22:31N 39°26' W 000°20'0 0.0
2015-Apr-11 21:31N 39°26' W 000°20'0 0.0
2015-Apr-11 20:31N 39°26' W 000°20'0 0.0
2015-Apr-11 19:31N 39°26' W 000°20'0 0.0
2015-Apr-11 18:22N 39°26' W 000°20'0 0.0
2015-Apr-11 17:31N 39°26' W 000°20'3 3.1
2015-Apr-11 16:33N 39°25' W 000°17'6817.0
2015-Apr-11 12:32N 39°13' E 001°10'1818.1
2015-Apr-11 11:33N 39°10' E 001°33'1817.6
2015-Apr-11 10:33N 39°06' E 001°55'1818.2
2015-Apr-11 09:33N 39°02' E 002°18'1818.0
2015-Apr-11 08:33N 38°59' E 002°41'1919.1
2015-Apr-11 07:33N 38°54' E 003°05'1919.3
2015-Apr-11 06:33N 38°50' E 003°29'1919.4
2015-Apr-11 05:33N 38°46' E 003°53'1918.5
2015-Apr-11 04:33N 38°42' E 004°16'1918.9
2015-Apr-11 03:34N 38°38' E 004°40'1918.6
2015-Apr-11 02:33N 38°35' E 005°03'1918.3
2015-Apr-11 01:32N 38°30' E 005°27'2019.5
2015-Apr-11 00:31N 38°26' E 005°51'2118.4
2015-Apr-10 23:21N 38°22' E 006°18'5719.7
2015-Apr-10 20:27N 38°10' E 007°29'2120.4
2015-Apr-10 19:27N 38°06' E 007°55'3919.5
2015-Apr-10 17:26N 37°57' E 008°44'  
Track history (hours):
 
Tides and Currents Weather Stations Pressure Air Temp Water Temp Dewpoint Dewpoint Depression Visibility Wind Speed Wind Dir Waves Ship Positions

MSC Bari

Last reported at 2015-Apr-19 01:33 UTC. Time now 2015-Apr-21 01:25 UTC.
Position N 38°13' E 015°36'.

Length 366 m; draft 13 m.

Type: Ship (hazmat cat A). MMSI: 636092188.

Date/timePositionNaut miles runAvg speedWind from/ knotsBaromVisibWave heightAir tempDewpointWater temp
2015-Apr-19 01:33N 38°13' E 015°36'20 9.1
2015-Apr-18 23:20N 38°27' E 015°54'0 0.0
2015-Apr-18 12:20N 38°27' E 015°54'0 0.0
2015-Apr-18 11:32N 38°27' E 015°54'0 0.0
2015-Apr-17 16:32N 38°27' E 015°54'0 0.0
2015-Apr-17 15:20N 38°27' E 015°54'0 0.0
2015-Apr-17 14:25N 38°27' E 015°54'11 1.9
2015-Apr-17 08:19N 38°34' E 015°42'1819.1
2015-Apr-17 07:23N 38°46' E 015°26'1720.5
2015-Apr-17 06:33N 38°58' E 015°10'2020.0
2015-Apr-17 05:33N 39°11' E 014°51'2020.1
2015-Apr-17 04:33N 39°24' E 014°31'2020.1
2015-Apr-17 03:33N 39°37' E 014°11'2020.0
2015-Apr-17 02:33N 39°50' E 013°51'2020.2
2015-Apr-17 01:33N 40°03' E 013°31'2120.4
2015-Apr-17 00:33N 40°17' E 013°11'2020.4
2015-Apr-16 23:33N 40°30' E 012°51'2020.4
2015-Apr-16 22:33N 40°43' E 012°30'2020.3
2015-Apr-16 21:33N 40°56' E 012°10'2020.2
2015-Apr-16 20:33N 41°09' E 011°49'2020.0
2015-Apr-16 19:33N 41°22' E 011°29'2020.4
2015-Apr-16 18:33N 41°35' E 011°09'2120.6
2015-Apr-16 17:33N 41°49' E 010°47'2020.3
2015-Apr-16 16:33N 42°02' E 010°27'2120.4
2015-Apr-16 15:32N 42°15' E 010°05'2820.2
2015-Apr-16 14:09N 42°41' E 009°50'1220.4
2015-Apr-16 13:33N 42°52' E 009°44'1919.1
2015-Apr-16 12:33N 43°12' E 009°42'2019.9
2015-Apr-16 11:33N 43°31' E 009°46'2020.2
2015-Apr-16 10:33N 43°51' E 009°50'1414.6
2015-Apr-16 09:33N 44°06' E 009°51'1 0.7
2015-Apr-16 08:33N 44°06' E 009°51'0 0.0
2015-Apr-16 07:33N 44°06' E 009°51'0 0.0
2015-Apr-16 06:33N 44°06' E 009°51'0 0.0
2015-Apr-16 05:33N 44°06' E 009°51'0 0.0
2015-Apr-16 04:33N 44°06' E 009°51'0 0.0
2015-Apr-16 03:33N 44°06' E 009°51'0 0.0
2015-Apr-16 02:33N 44°06' E 009°51'0 0.0
2015-Apr-16 01:27N 44°06' E 009°51'0 0.0
2015-Apr-16 00:33N 44°06' E 009°51'0 0.0
2015-Apr-15 23:33N 44°06' E 009°51'0 0.0
2015-Apr-15 22:33N 44°06' E 009°51'0 0.0
2015-Apr-15 21:33N 44°06' E 009°51'0 0.0
2015-Apr-15 20:33N 44°06' E 009°51'0 0.0
2015-Apr-15 19:33N 44°06' E 009°51'0 0.0
2015-Apr-15 18:33N 44°06' E 009°51'0 0.0
2015-Apr-15 17:33N 44°06' E 009°51'0 0.0
2015-Apr-15 16:33N 44°06' E 009°51'0 0.0
2015-Apr-15 15:33N 44°06' E 009°51'0 0.0
2015-Apr-15 14:33N 44°06' E 009°51'0 0.0
2015-Apr-15 13:33N 44°06' E 009°51'0 0.0
2015-Apr-15 12:33N 44°06' E 009°51'0 0.0
2015-Apr-15 11:33N 44°06' E 009°51'0 0.0
2015-Apr-15 10:33N 44°06' E 009°51'0 0.0
2015-Apr-15 09:33N 44°06' E 009°51'0 0.0
2015-Apr-15 08:33N 44°06' E 009°51'0 0.0
2015-Apr-15 07:33N 44°06' E 009°51'0 0.0
2015-Apr-15 06:33N 44°06' E 009°51'0 0.0
2015-Apr-15 05:30N 44°06' E 009°51'0 0.3
2015-Apr-15 04:34N 44°06' E 009°51'7 6.7
2015-Apr-15 03:34N 44°00' E 009°55'1616.1
2015-Apr-15 02:33N 43°53' E 009°35'1616.0
2015-Apr-15 01:34N 43°45' E 009°15'1616.3
2015-Apr-15 00:33N 43°38' E 008°55'1616.3
2015-Apr-14 23:33N 43°32' E 008°35'1616.1
2015-Apr-14 22:33N 43°24' E 008°15'1616.2
2015-Apr-14 21:33N 43°17' E 007°55'1616.1
2015-Apr-14 20:33N 43°10' E 007°35'1616.1
2015-Apr-14 19:33N 43°04' E 007°15'1616.5
2015-Apr-14 18:33N 42°56' E 006°54'1615.7
2015-Apr-14 17:33N 42°50' E 006°35'1615.8
2015-Apr-14 16:33N 42°43' E 006°16'1616.1
2015-Apr-14 15:33N 42°36' E 005°56'1616.4
2015-Apr-14 14:34N 42°29' E 005°36'1817.5
2015-Apr-14 13:33N 42°21' E 005°14'1817.8
2015-Apr-14 12:33N 42°13' E 004°53'1817.8
2015-Apr-14 11:32N 42°06' E 004°31'2117.8
2015-Apr-14 10:21N 41°56' E 004°05'1416.7
2015-Apr-14 09:32N 41°50' E 003°49'2017.0
2015-Apr-14 08:20N 41°41' E 003°24'1317.1
2015-Apr-14 07:33N 41°35' E 003°08'1717.2
2015-Apr-14 06:33N 41°27' E 002°48'1716.8
2015-Apr-14 05:33N 41°20' E 002°28'1313.2
2015-Apr-14 04:33N 41°19' E 002°10'1 0.5
2015-Apr-14 02:07N 41°18' E 002°09'0 0.0
2015-Apr-14 01:25N 41°18' E 002°09'0 0.0
2015-Apr-13 23:32N 41°18' E 002°09'0 0.0
2015-Apr-13 22:07N 41°18' E 002°09'0 0.0
2015-Apr-13 21:31N 41°18' E 002°09'0 0.0
2015-Apr-13 20:31N 41°18' E 002°09'0 0.0
2015-Apr-13 19:19N 41°18' E 002°09'0 0.0
2015-Apr-13 18:31N 41°18' E 002°09'0 0.0
2015-Apr-13 17:28N 41°18' E 002°09'1 1.4
2015-Apr-13 16:33N 41°19' E 002°10'6 5.6
2015-Apr-13 15:33N 41°14' E 002°08'1110.9
2015-Apr-13 14:33N 41°06' E 001°59'1313.3
2015-Apr-13 13:33N 40°56' E 001°47'1313.0
2015-Apr-13 12:33N 40°46' E 001°36'1313.1
2015-Apr-13 11:33N 40°36' E 001°24'1313.4
2015-Apr-13 10:33N 40°26' E 001°12'1414.1
2015-Apr-13 09:34N 40°17' E 000°59'1413.9
2015-Apr-13 08:33N 40°07' E 000°46'1413.6
2015-Apr-13 07:33N 39°58' E 000°32'1413.7
2015-Apr-13 06:33N 39°48' E 000°20'3115.2
2015-Apr-13 04:33N 39°28' W 000°09'8 7.9
2015-Apr-13 03:33N 39°26' W 000°19'0 0.2
2015-Apr-13 02:32N 39°26' W 000°20'0 0.0
2015-Apr-13 01:32N 39°26' W 000°20'0 0.0
2015-Apr-13 00:32N 39°26' W 000°20'0 0.0
2015-Apr-12 23:32N 39°26' W 000°20'0 0.0
2015-Apr-12 22:23N 39°26' W 000°20'0 0.0
2015-Apr-12 21:31N 39°26' W 000°20'0 0.0
2015-Apr-12 20:32N 39°26' W 000°20'0 0.0
2015-Apr-12 19:32N 39°26' W 000°20'0 0.0
2015-Apr-12 18:31N 39°26' W 000°20'0 0.0
2015-Apr-12 16:31N 39°26' W 000°20'0 0.0
2015-Apr-12 15:31N 39°26' W 000°20'0 0.0
2015-Apr-12 14:29N 39°26' W 000°20'0 0.0
2015-Apr-12 13:31N 39°26' W 000°20'0 0.0
2015-Apr-12 12:31N 39°26' W 000°20'0 0.0
2015-Apr-12 11:28N 39°26' W 000°20'0 0.0
2015-Apr-12 10:31N 39°26' W 000°20'0 0.0
2015-Apr-12 09:28N 39°26' W 000°20'0 0.0
2015-Apr-12 08:22N 39°26' W 000°20'0 0.0
2015-Apr-12 07:25N 39°26' W 000°20'0 0.0
2015-Apr-12 06:07N 39°26' W 000°20'0 0.0
2015-Apr-12 05:31N 39°26' W 000°20'0 0.0
2015-Apr-12 04:32N 39°26' W 000°20'0 0.0
2015-Apr-12 03:28N 39°26' W 000°20'0 0.0
2015-Apr-12 02:31N 39°26' W 000°20'0 0.0
2015-Apr-12 01:25N 39°26' W 000°20'0 0.0
2015-Apr-12 00:31N 39°26' W 000°20'0 0.0
2015-Apr-11 23:31N 39°26' W 000°20'0 0.0
2015-Apr-11 22:31N 39°26' W 000°20'0 0.0
2015-Apr-11 21:31N 39°26' W 000°20'0 0.0
2015-Apr-11 20:31N 39°26' W 000°20'0 0.0
2015-Apr-11 19:31N 39°26' W 000°20'0 0.0
2015-Apr-11 18:22N 39°26' W 000°20'0 0.0
2015-Apr-11 17:31N 39°26' W 000°20'3 3.1
2015-Apr-11 16:33N 39°25' W 000°17'6817.0
2015-Apr-11 12:32N 39°13' E 001°10'1818.1
2015-Apr-11 11:33N 39°10' E 001°33'1817.6
2015-Apr-11 10:33N 39°06' E 001°55'1818.2
2015-Apr-11 09:33N 39°02' E 002°18'1818.0
2015-Apr-11 08:33N 38°59' E 002°41'1919.1
2015-Apr-11 07:33N 38°54' E 003°05'1919.3
2015-Apr-11 06:33N 38°50' E 003°29'1919.4
2015-Apr-11 05:33N 38°46' E 003°53'1918.5
2015-Apr-11 04:33N 38°42' E 004°16'1918.9
2015-Apr-11 03:34N 38°38' E 004°40'1918.6
2015-Apr-11 02:33N 38°35' E 005°03'1918.3
2015-Apr-11 01:32N 38°30' E 005°27'2019.5
2015-Apr-11 00:31N 38°26' E 005°51'2118.4
2015-Apr-10 23:21N 38°22' E 006°18'5719.7
2015-Apr-10 20:27N 38°10' E 007°29'2120.4
2015-Apr-10 19:27N 38°06' E 007°55'3919.5
2015-Apr-10 17:26N 37°57' E 008°44'  

Dump ship's entire track history